LIPX/VRN METAR and TAF weather

Enter ICAO airport designator
Station Type Date Time Source
LIPX METAR 2021/05/07 00:20 UTC NOAA

LIPX 070020Z 13003KT 090V240 9999 BKN050 13/09 Q1008


Station Type Date Time Source
LIPX Decoded METAR 2021/05/07 00:20 UTC NOAA

Verona / Villafranca, Italy (LIPX) 45-23N 010-52E 68M
May 06, 2021 - 08:20 PM EDT / 2021.05.07 0020 UTC
Wind: from the SE (130 degrees) at 3 MPH (3 KT) (direction variable):0
Visibility: greater than 7 mile(s):0
Sky conditions: mostly cloudy
Temperature: 55 F (13 C)
Dew Point: 48 F (9 C)
Relative Humidity: 76%
Pressure (altimeter): 29.77 in. Hg (1008 hPa)
ob: LIPX 070020Z 13003KT 090V240 9999 BKN050 13/09 Q1008
cycle: 0

Station Type Date Time Source
LIPX TAF 2014/04/22 15:24 UTC NOAA

TAF LIPX 221400Z 2215/2324 VRB05KT 9999 SCT030 SCT070
TEMPO 2215/2218 SCT025CB SCT080 PROB30
TEMPO 2215/2218 TS

Example: see airport list